Capitol Logistics 440


KRFD
Chicago/Rockford International Airport
Rockford, Illinois, US
KSLC
Salt Lake City International Airport
Salt Lake City, Utah, US

Activity Log

Date Flight Route Aircraft Duration
No Flights Yet

Route Details

Aircraft Information
Primary: Boeing 757-200SF
Backup: Boeing 737-800BCF
Route Data
Distance: 1031nm
Sched. Duration: 2h 45m
Avg. Duration: 0h 00m (-245m)
Times Flown: 0
Recm'd Route: RFD COTON J128 DBQ ALO FOD DDY NORDK6
Planned Altitude: 36,000ft
Origin Wx: KRFD 220154Z 28017G26KT 10SM BKN040 02/M06 A2981 RMK AO2 PK WND 29029/0123 SLP103 T00171061
Dest. Wx: KSLC 220154Z 00000KT 10SM BKN100 BKN120 02/M04 A3000 RMK AO2 SLP175 T00171044
Notes:

Financial History
Total Freight: 0lbs
Average Load: 0lbs/flt
Fuel Used: 0lbs
Avg. Fuel Used: 0lbs/flt
Fuel Expense: $0
Avg. Fuel Expense: $0
Avg. Fuel Cost: $0/lbs
Total Gross Income: $0
Pilot Pay: $0
Total Expenses: $0
Total Revenue: $0
Average Revenue: $0